sensor_id;sensor_type;location;lat;lon;timestamp;temperature;humidity
28763;DHT22;15918;51.270;6.522;2023-07-09T00:01:42;28.50;47.30
28763;DHT22;15918;51.270;6.522;2023-07-09T00:04:12;28.50;47.10
28763;DHT22;15918;51.270;6.522;2023-07-09T00:06:38;28.40;46.90
28763;DHT22;15918;51.270;6.522;2023-07-09T00:09:06;28.50;47.20
28763;DHT22;15918;51.270;6.522;2023-07-09T00:11:32;28.40;47.20
28763;DHT22;15918;51.270;6.522;2023-07-09T00:13:57;28.40;47.40
28763;DHT22;15918;51.270;6.522;2023-07-09T00:16:25;28.40;47.50
28763;DHT22;15918;51.270;6.522;2023-07-09T00:18:51;28.40;47.60
28763;DHT22;15918;51.270;6.522;2023-07-09T00:21:21;28.40;47.60
28763;DHT22;15918;51.270;6.522;2023-07-09T00:23:47;28.40;47.50
28763;DHT22;15918;51.270;6.522;2023-07-09T00:26:16;28.30;47.60
28763;DHT22;15918;51.270;6.522;2023-07-09T00:28:42;28.30;47.80
28763;DHT22;15918;51.270;6.522;2023-07-09T00:31:13;28.30;48.00
28763;DHT22;15918;51.270;6.522;2023-07-09T00:33:40;28.30;48.00
28763;DHT22;15918;51.270;6.522;2023-07-09T00:36:26;28.30;48.20
28763;DHT22;15918;51.270;6.522;2023-07-09T00:38:54;28.30;48.10
28763;DHT22;15918;51.270;6.522;2023-07-09T00:41:22;28.30;48.30
28763;DHT22;15918;51.270;6.522;2023-07-09T00:43:49;28.30;48.40
28763;DHT22;15918;51.270;6.522;2023-07-09T00:49:00;28.20;48.40
28763;DHT22;15918;51.270;6.522;2023-07-09T00:51:27;28.20;48.50
28763;DHT22;15918;51.270;6.522;2023-07-09T00:53:57;28.20;48.60
28763;DHT22;15918;51.270;6.522;2023-07-09T00:56:33;28.20;48.70
28763;DHT22;15918;51.270;6.522;2023-07-09T00:59:06;28.20;48.60
28763;DHT22;15918;51.270;6.522;2023-07-09T01:01:33;28.10;48.70
28763;DHT22;15918;51.270;6.522;2023-07-09T01:04:01;28.10;48.60
28763;DHT22;15918;51.270;6.522;2023-07-09T01:06:38;28.10;48.70
28763;DHT22;15918;51.270;6.522;2023-07-09T01:09:06;28.10;48.70
28763;DHT22;15918;51.270;6.522;2023-07-09T01:11:33;28.10;48.90
28763;DHT22;15918;51.270;6.522;2023-07-09T01:14:02;28.10;49.20
28763;DHT22;15918;51.270;6.522;2023-07-09T01:16:32;28.10;49.00
28763;DHT22;15918;51.270;6.522;2023-07-09T01:18:59;28.00;49.10
28763;DHT22;15918;51.270;6.522;2023-07-09T01:21:26;28.00;49.20
28763;DHT22;15918;51.270;6.522;2023-07-09T01:23:52;28.00;49.30
28763;DHT22;15918;51.270;6.522;2023-07-09T01:26:23;28.00;49.30
28763;DHT22;15918;51.270;6.522;2023-07-09T01:28:54;27.90;49.30
28763;DHT22;15918;51.270;6.522;2023-07-09T01:31:20;27.90;49.40
28763;DHT22;15918;51.270;6.522;2023-07-09T01:33:49;27.90;49.40
28763;DHT22;15918;51.270;6.522;2023-07-09T01:36:18;27.90;49.50
28763;DHT22;15918;51.270;6.522;2023-07-09T01:38:49;27.90;49.60
28763;DHT22;15918;51.270;6.522;2023-07-09T01:41:15;27.80;49.60
28763;DHT22;15918;51.270;6.522;2023-07-09T01:43:42;27.90;49.70
28763;DHT22;15918;51.270;6.522;2023-07-09T01:46:09;27.80;49.60
28763;DHT22;15918;51.270;6.522;2023-07-09T01:48:35;27.80;49.60
28763;DHT22;15918;51.270;6.522;2023-07-09T01:51:08;27.80;49.70
28763;DHT22;15918;51.270;6.522;2023-07-09T01:53:35;27.80;49.70
28763;DHT22;15918;51.270;6.522;2023-07-09T01:56:03;27.70;50.40
28763;DHT22;15918;51.270;6.522;2023-07-09T01:58:29;27.80;49.90
28763;DHT22;15918;51.270;6.522;2023-07-09T02:00:58;27.70;49.80
28763;DHT22;15918;51.270;6.522;2023-07-09T02:03:24;27.80;49.90
28763;DHT22;15918;51.270;6.522;2023-07-09T02:05:52;27.70;49.90
28763;DHT22;15918;51.270;6.522;2023-07-09T02:08:18;27.70;49.90
28763;DHT22;15918;51.270;6.522;2023-07-09T02:10:45;27.70;50.00
28763;DHT22;15918;51.270;6.522;2023-07-09T02:13:13;27.70;50.10
28763;DHT22;15918;51.270;6.522;2023-07-09T02:15:39;27.70;50.10
28763;DHT22;15918;51.270;6.522;2023-07-09T02:18:09;27.60;50.10
28763;DHT22;15918;51.270;6.522;2023-07-09T02:20:34;27.60;50.20
28763;DHT22;15918;51.270;6.522;2023-07-09T02:23:00;27.60;50.30
28763;DHT22;15918;51.270;6.522;2023-07-09T02:25:25;27.60;50.30
28763;DHT22;15918;51.270;6.522;2023-07-09T02:27:51;27.60;50.40
28763;DHT22;15918;51.270;6.522;2023-07-09T02:30:16;27.60;50.30
28763;DHT22;15918;51.270;6.522;2023-07-09T02:32:42;27.50;50.00
28763;DHT22;15918;51.270;6.522;2023-07-09T02:35:08;27.50;50.20
28763;DHT22;15918;51.270;6.522;2023-07-09T02:37:34;27.50;50.90
28763;DHT22;15918;51.270;6.522;2023-07-09T02:39:59;27.60;50.10
28763;DHT22;15918;51.270;6.522;2023-07-09T02:42:25;27.50;50.10
28763;DHT22;15918;51.270;6.522;2023-07-09T02:44:51;27.50;50.20
28763;DHT22;15918;51.270;6.522;2023-07-09T02:47:17;27.50;49.90
28763;DHT22;15918;51.270;6.522;2023-07-09T02:49:43;27.50;50.10
28763;DHT22;15918;51.270;6.522;2023-07-09T02:52:09;27.50;50.20
28763;DHT22;15918;51.270;6.522;2023-07-09T02:54:34;27.50;50.40
28763;DHT22;15918;51.270;6.522;2023-07-09T02:57:00;27.50;50.50
28763;DHT22;15918;51.270;6.522;2023-07-09T02:59:26;27.40;50.40
28763;DHT22;15918;51.270;6.522;2023-07-09T03:01:55;27.40;50.40
28763;DHT22;15918;51.270;6.522;2023-07-09T03:04:20;27.40;50.50
28763;DHT22;15918;51.270;6.522;2023-07-09T03:06:46;27.40;50.50
28763;DHT22;15918;51.270;6.522;2023-07-09T03:09:12;27.40;50.50
28763;DHT22;15918;51.270;6.522;2023-07-09T03:11:38;27.40;50.60
28763;DHT22;15918;51.270;6.522;2023-07-09T03:14:04;27.40;50.70
28763;DHT22;15918;51.270;6.522;2023-07-09T03:16:31;27.40;50.80
28763;DHT22;15918;51.270;6.522;2023-07-09T03:18:57;27.30;50.80
28763;DHT22;15918;51.270;6.522;2023-07-09T03:21:25;27.30;50.80
28763;DHT22;15918;51.270;6.522;2023-07-09T03:23:51;27.30;50.80
28763;DHT22;15918;51.270;6.522;2023-07-09T03:26:17;27.30;50.90
28763;DHT22;15918;51.270;6.522;2023-07-09T03:28:43;27.30;50.90
28763;DHT22;15918;51.270;6.522;2023-07-09T03:31:08;27.20;50.90
28763;DHT22;15918;51.270;6.522;2023-07-09T03:33:34;27.20;50.90
28763;DHT22;15918;51.270;6.522;2023-07-09T03:36:00;27.20;50.90
28763;DHT22;15918;51.270;6.522;2023-07-09T03:38:25;27.10;50.90
28763;DHT22;15918;51.270;6.522;2023-07-09T03:40:52;27.10;50.90
28763;DHT22;15918;51.270;6.522;2023-07-09T03:43:18;27.10;50.90
28763;DHT22;15918;51.270;6.522;2023-07-09T03:45:45;27.10;51.00
28763;DHT22;15918;51.270;6.522;2023-07-09T03:48:12;27.10;51.10
28763;DHT22;15918;51.270;6.522;2023-07-09T03:50:38;27.10;51.10
28763;DHT22;15918;51.270;6.522;2023-07-09T03:53:03;27.00;51.00
28763;DHT22;15918;51.270;6.522;2023-07-09T03:55:29;27.00;51.20
28763;DHT22;15918;51.270;6.522;2023-07-09T03:57:55;27.00;51.20
28763;DHT22;15918;51.270;6.522;2023-07-09T04:00:20;27.00;51.20
28763;DHT22;15918;51.270;6.522;2023-07-09T04:02:46;27.00;51.20
28763;DHT22;15918;51.270;6.522;2023-07-09T04:05:12;27.00;51.20
28763;DHT22;15918;51.270;6.522;2023-07-09T04:07:37;27.00;51.30
28763;DHT22;15918;51.270;6.522;2023-07-09T04:10:04;27.00;51.40
28763;DHT22;15918;51.270;6.522;2023-07-09T04:12:30;27.00;51.40
28763;DHT22;15918;51.270;6.522;2023-07-09T04:14:55;26.90;51.10
28763;DHT22;15918;51.270;6.522;2023-07-09T04:17:21;27.00;51.30
28763;DHT22;15918;51.270;6.522;2023-07-09T04:19:52;26.90;51.40
28763;DHT22;15918;51.270;6.522;2023-07-09T04:22:18;26.90;51.60
28763;DHT22;15918;51.270;6.522;2023-07-09T04:24:44;27.00;51.70
28763;DHT22;15918;51.270;6.522;2023-07-09T04:27:15;26.90;51.40
28763;DHT22;15918;51.270;6.522;2023-07-09T04:29:41;26.90;51.50
28763;DHT22;15918;51.270;6.522;2023-07-09T04:32:16;26.90;51.60
28763;DHT22;15918;51.270;6.522;2023-07-09T04:34:41;26.90;51.50
28763;DHT22;15918;51.270;6.522;2023-07-09T04:37:09;26.90;51.20
28763;DHT22;15918;51.270;6.522;2023-07-09T04:39:35;26.90;51.20
28763;DHT22;15918;51.270;6.522;2023-07-09T04:42:01;26.80;51.00
28763;DHT22;15918;51.270;6.522;2023-07-09T04:44:29;26.80;51.30
28763;DHT22;15918;51.270;6.522;2023-07-09T04:46:55;26.80;51.50
28763;DHT22;15918;51.270;6.522;2023-07-09T04:49:20;26.80;51.50
28763;DHT22;15918;51.270;6.522;2023-07-09T04:51:46;26.80;51.60
28763;DHT22;15918;51.270;6.522;2023-07-09T04:54:11;26.80;51.30
28763;DHT22;15918;51.270;6.522;2023-07-09T04:56:39;26.80;51.20
28763;DHT22;15918;51.270;6.522;2023-07-09T04:59:05;26.80;51.30
28763;DHT22;15918;51.270;6.522;2023-07-09T05:01:30;26.80;51.20
28763;DHT22;15918;51.270;6.522;2023-07-09T05:03:56;26.80;51.40
28763;DHT22;15918;51.270;6.522;2023-07-09T05:06:22;26.80;51.50
28763;DHT22;15918;51.270;6.522;2023-07-09T05:08:47;26.80;51.40
28763;DHT22;15918;51.270;6.522;2023-07-09T05:11:14;26.80;51.40
28763;DHT22;15918;51.270;6.522;2023-07-09T05:13:40;26.80;51.30
28763;DHT22;15918;51.270;6.522;2023-07-09T05:16:05;26.80;51.50
28763;DHT22;15918;51.270;6.522;2023-07-09T05:18:31;26.80;51.50
28763;DHT22;15918;51.270;6.522;2023-07-09T05:20:57;26.80;51.50
28763;DHT22;15918;51.270;6.522;2023-07-09T05:23:24;26.80;51.40
28763;DHT22;15918;51.270;6.522;2023-07-09T05:25:55;26.80;51.40
28763;DHT22;15918;51.270;6.522;2023-07-09T05:28:20;26.80;51.40
28763;DHT22;15918;51.270;6.522;2023-07-09T05:30:46;26.80;51.50
28763;DHT22;15918;51.270;6.522;2023-07-09T05:33:12;26.80;51.60
28763;DHT22;15918;51.270;6.522;2023-07-09T05:35:37;26.80;51.50
28763;DHT22;15918;51.270;6.522;2023-07-09T05:38:03;26.80;51.60
28763;DHT22;15918;51.270;6.522;2023-07-09T05:40:28;26.90;51.60
28763;DHT22;15918;51.270;6.522;2023-07-09T05:42:54;26.90;51.50
28763;DHT22;15918;51.270;6.522;2023-07-09T05:45:19;26.90;51.50
28763;DHT22;15918;51.270;6.522;2023-07-09T05:47:45;26.90;51.60
28763;DHT22;15918;51.270;6.522;2023-07-09T05:50:10;26.90;51.60
28763;DHT22;15918;51.270;6.522;2023-07-09T05:52:36;26.90;51.60
28763;DHT22;15918;51.270;6.522;2023-07-09T05:55:01;26.90;51.60
28763;DHT22;15918;51.270;6.522;2023-07-09T05:57:27;26.90;51.60
28763;DHT22;15918;51.270;6.522;2023-07-09T05:59:52;26.90;51.50
28763;DHT22;15918;51.270;6.522;2023-07-09T06:02:20;27.00;51.70
28763;DHT22;15918;51.270;6.522;2023-07-09T06:04:46;27.00;51.70
28763;DHT22;15918;51.270;6.522;2023-07-09T06:07:15;27.00;51.80
28763;DHT22;15918;51.270;6.522;2023-07-09T06:09:40;27.10;51.80
28763;DHT22;15918;51.270;6.522;2023-07-09T06:12:06;27.10;51.90
28763;DHT22;15918;51.270;6.522;2023-07-09T06:14:33;27.10;51.70
28763;DHT22;15918;51.270;6.522;2023-07-09T06:16:59;27.10;51.70
28763;DHT22;15918;51.270;6.522;2023-07-09T06:19:25;27.20;51.80
28763;DHT22;15918;51.270;6.522;2023-07-09T06:21:51;27.20;51.70
28763;DHT22;15918;51.270;6.522;2023-07-09T06:24:17;27.20;51.70
28763;DHT22;15918;51.270;6.522;2023-07-09T06:26:43;27.20;51.80
28763;DHT22;15918;51.270;6.522;2023-07-09T06:29:09;27.30;51.90
28763;DHT22;15918;51.270;6.522;2023-07-09T06:31:34;27.40;52.20
28763;DHT22;15918;51.270;6.522;2023-07-09T06:34:01;27.40;52.20
28763;DHT22;15918;51.270;6.522;2023-07-09T06:36:27;27.40;52.00
28763;DHT22;15918;51.270;6.522;2023-07-09T06:38:52;27.40;51.90
28763;DHT22;15918;51.270;6.522;2023-07-09T06:41:18;27.50;51.80
28763;DHT22;15918;51.270;6.522;2023-07-09T06:43:43;27.50;51.70
28763;DHT22;15918;51.270;6.522;2023-07-09T06:46:11;27.50;51.90
28763;DHT22;15918;51.270;6.522;2023-07-09T06:48:37;27.60;51.70
28763;DHT22;15918;51.270;6.522;2023-07-09T06:51:03;27.60;51.80
28763;DHT22;15918;51.270;6.522;2023-07-09T06:53:29;27.70;51.70
28763;DHT22;15918;51.270;6.522;2023-07-09T06:55:55;27.70;51.80
28763;DHT22;15918;51.270;6.522;2023-07-09T06:58:25;27.70;51.70
28763;DHT22;15918;51.270;6.522;2023-07-09T07:00:53;27.80;51.60
28763;DHT22;15918;51.270;6.522;2023-07-09T07:03:20;27.80;51.40
28763;DHT22;15918;51.270;6.522;2023-07-09T07:05:47;27.80;51.30
28763;DHT22;15918;51.270;6.522;2023-07-09T07:08:15;27.90;51.30
28763;DHT22;15918;51.270;6.522;2023-07-09T07:10:41;27.90;51.50
28763;DHT22;15918;51.270;6.522;2023-07-09T07:13:07;28.00;51.50
28763;DHT22;15918;51.270;6.522;2023-07-09T07:15:36;28.00;51.60
28763;DHT22;15918;51.270;6.522;2023-07-09T07:18:01;28.10;51.90
28763;DHT22;15918;51.270;6.522;2023-07-09T07:20:27;28.10;51.90
28763;DHT22;15918;51.270;6.522;2023-07-09T07:22:53;28.20;51.80
28763;DHT22;15918;51.270;6.522;2023-07-09T07:25:18;28.20;51.70
28763;DHT22;15918;51.270;6.522;2023-07-09T07:27:44;28.20;51.60
28763;DHT22;15918;51.270;6.522;2023-07-09T07:30:09;28.30;51.50
28763;DHT22;15918;51.270;6.522;2023-07-09T07:32:43;28.30;51.50
28763;DHT22;15918;51.270;6.522;2023-07-09T07:35:09;28.30;51.40
28763;DHT22;15918;51.270;6.522;2023-07-09T07:37:34;28.40;51.30
28763;DHT22;15918;51.270;6.522;2023-07-09T07:40:00;28.30;51.20
28763;DHT22;15918;51.270;6.522;2023-07-09T07:42:27;28.40;51.40
28763;DHT22;15918;51.270;6.522;2023-07-09T07:44:53;28.40;51.30
28763;DHT22;15918;51.270;6.522;2023-07-09T07:47:19;28.40;51.20
28763;DHT22;15918;51.270;6.522;2023-07-09T07:49:44;28.50;51.30
28763;DHT22;15918;51.270;6.522;2023-07-09T07:52:10;28.50;51.30
28763;DHT22;15918;51.270;6.522;2023-07-09T07:54:36;28.50;51.20
28763;DHT22;15918;51.270;6.522;2023-07-09T07:57:01;28.50;51.20
28763;DHT22;15918;51.270;6.522;2023-07-09T07:59:27;28.60;51.20
28763;DHT22;15918;51.270;6.522;2023-07-09T08:01:53;28.60;51.10
28763;DHT22;15918;51.270;6.522;2023-07-09T08:04:18;28.60;50.90
28763;DHT22;15918;51.270;6.522;2023-07-09T08:06:44;28.70;51.10
28763;DHT22;15918;51.270;6.522;2023-07-09T08:09:09;28.60;51.10
28763;DHT22;15918;51.270;6.522;2023-07-09T08:11:35;28.70;51.10
28763;DHT22;15918;51.270;6.522;2023-07-09T08:14:01;28.70;51.00
28763;DHT22;15918;51.270;6.522;2023-07-09T08:16:26;28.80;51.20
28763;DHT22;15918;51.270;6.522;2023-07-09T08:18:52;28.80;51.20
28763;DHT22;15918;51.270;6.522;2023-07-09T08:21:18;28.90;51.20
28763;DHT22;15918;51.270;6.522;2023-07-09T08:23:44;28.80;51.10
28763;DHT22;15918;51.270;6.522;2023-07-09T08:26:10;28.90;51.10
28763;DHT22;15918;51.270;6.522;2023-07-09T08:28:37;28.90;50.90
28763;DHT22;15918;51.270;6.522;2023-07-09T08:31:03;28.90;50.70
28763;DHT22;15918;51.270;6.522;2023-07-09T08:33:29;28.90;50.90
28763;DHT22;15918;51.270;6.522;2023-07-09T08:35:55;29.00;50.90
28763;DHT22;15918;51.270;6.522;2023-07-09T08:38:21;29.00;50.90
28763;DHT22;15918;51.270;6.522;2023-07-09T08:41:07;29.00;50.90
28763;DHT22;15918;51.270;6.522;2023-07-09T08:49:19;29.10;50.50
28763;DHT22;15918;51.270;6.522;2023-07-09T08:51:47;29.20;50.80
28763;DHT22;15918;51.270;6.522;2023-07-09T08:54:23;29.20;50.70
28763;DHT22;15918;51.270;6.522;2023-07-09T08:56:49;29.20;50.60
28763;DHT22;15918;51.270;6.522;2023-07-09T08:59:17;29.30;50.50
28763;DHT22;15918;51.270;6.522;2023-07-09T09:01:50;29.30;50.40
28763;DHT22;15918;51.270;6.522;2023-07-09T09:04:24;29.30;50.30
28763;DHT22;15918;51.270;6.522;2023-07-09T09:09:49;29.40;50.30
28763;DHT22;15918;51.270;6.522;2023-07-09T09:13:10;29.40;50.40
28763;DHT22;15918;51.270;6.522;2023-07-09T09:15:20;29.50;50.40
28763;DHT22;15918;51.270;6.522;2023-07-09T09:17:51;29.50;50.30
28763;DHT22;15918;51.270;6.522;2023-07-09T09:20:20;29.50;50.30
28763;DHT22;15918;51.270;6.522;2023-07-09T09:25:31;29.60;50.00
28763;DHT22;15918;51.270;6.522;2023-07-09T09:27:59;29.70;49.90
28763;DHT22;15918;51.270;6.522;2023-07-09T09:30:26;29.70;49.90
28763;DHT22;15918;51.270;6.522;2023-07-09T09:32:58;29.70;49.80
28763;DHT22;15918;51.270;6.522;2023-07-09T09:37:58;29.90;49.30
28763;DHT22;15918;51.270;6.522;2023-07-09T09:40:25;29.90;49.30
28763;DHT22;15918;51.270;6.522;2023-07-09T09:42:54;30.00;49.10
28763;DHT22;15918;51.270;6.522;2023-07-09T09:45:37;30.10;49.20
28763;DHT22;15918;51.270;6.522;2023-07-09T09:48:19;30.10;48.90
28763;DHT22;15918;51.270;6.522;2023-07-09T09:50:46;30.10;48.80
28763;DHT22;15918;51.270;6.522;2023-07-09T09:53:19;30.10;48.50
28763;DHT22;15918;51.270;6.522;2023-07-09T09:55:45;30.20;48.80
28763;DHT22;15918;51.270;6.522;2023-07-09T09:58:14;30.20;49.00
28763;DHT22;15918;51.270;6.522;2023-07-09T10:00:46;30.30;48.90
28763;DHT22;15918;51.270;6.522;2023-07-09T10:03:13;30.30;48.90
28763;DHT22;15918;51.270;6.522;2023-07-09T10:05:55;30.30;48.70
28763;DHT22;15918;51.270;6.522;2023-07-09T10:08:39;30.40;48.70
28763;DHT22;15918;51.270;6.522;2023-07-09T10:11:24;30.40;48.60
28763;DHT22;15918;51.270;6.522;2023-07-09T10:14:00;30.40;48.20
28763;DHT22;15918;51.270;6.522;2023-07-09T10:16:36;30.40;48.10
28763;DHT22;15918;51.270;6.522;2023-07-09T10:19:35;30.50;47.90
28763;DHT22;15918;51.270;6.522;2023-07-09T10:22:07;30.60;48.00
28763;DHT22;15918;51.270;6.522;2023-07-09T10:27:49;30.60;47.70
28763;DHT22;15918;51.270;6.522;2023-07-09T10:30:32;30.60;47.50
28763;DHT22;15918;51.270;6.522;2023-07-09T10:33:34;30.70;47.60
28763;DHT22;15918;51.270;6.522;2023-07-09T10:39:02;30.80;47.10
28763;DHT22;15918;51.270;6.522;2023-07-09T10:41:30;30.80;47.10
28763;DHT22;15918;51.270;6.522;2023-07-09T10:44:00;30.90;46.80
28763;DHT22;15918;51.270;6.522;2023-07-09T10:46:32;30.90;46.50
28763;DHT22;15918;51.270;6.522;2023-07-09T10:49:00;30.90;46.50
28763;DHT22;15918;51.270;6.522;2023-07-09T10:51:41;30.90;46.30
28763;DHT22;15918;51.270;6.522;2023-07-09T11:00:20;31.10;45.70
28763;DHT22;15918;51.270;6.522;2023-07-09T11:02:55;31.10;45.80
28763;DHT22;15918;51.270;6.522;2023-07-09T11:05:23;31.10;45.80
28763;DHT22;15918;51.270;6.522;2023-07-09T11:10:46;31.20;45.40
28763;DHT22;15918;51.270;6.522;2023-07-09T11:13:41;31.20;45.40
28763;DHT22;15918;51.270;6.522;2023-07-09T11:16:06;31.30;45.40
28763;DHT22;15918;51.270;6.522;2023-07-09T11:18:35;31.30;45.50
28763;DHT22;15918;51.270;6.522;2023-07-09T11:21:19;31.30;45.10
28763;DHT22;15918;51.270;6.522;2023-07-09T11:23:49;31.40;44.90
28763;DHT22;15918;51.270;6.522;2023-07-09T11:26:23;31.40;45.00
28763;DHT22;15918;51.270;6.522;2023-07-09T11:29:16;31.40;44.50
28763;DHT22;15918;51.270;6.522;2023-07-09T11:31:42;31.50;44.60
28763;DHT22;15918;51.270;6.522;2023-07-09T11:44:59;31.60;44.60
28763;DHT22;15918;51.270;6.522;2023-07-09T11:47:35;31.70;44.90
28763;DHT22;15918;51.270;6.522;2023-07-09T11:50:05;31.60;44.60
28763;DHT22;15918;51.270;6.522;2023-07-09T11:55:54;31.80;44.90
28763;DHT22;15918;51.270;6.522;2023-07-09T11:58:20;31.80;44.70
28763;DHT22;15918;51.270;6.522;2023-07-09T12:00:48;31.80;44.80
28763;DHT22;15918;51.270;6.522;2023-07-09T12:03:18;31.80;44.80
28763;DHT22;15918;51.270;6.522;2023-07-09T12:05:54;31.90;44.60
28763;DHT22;15918;51.270;6.522;2023-07-09T12:08:36;31.90;44.60
28763;DHT22;15918;51.270;6.522;2023-07-09T12:11:03;32.00;44.30
28763;DHT22;15918;51.270;6.522;2023-07-09T12:13:29;32.00;44.50
28763;DHT22;15918;51.270;6.522;2023-07-09T12:16:01;32.00;44.40
28763;DHT22;15918;51.270;6.522;2023-07-09T12:18:29;32.00;44.30
28763;DHT22;15918;51.270;6.522;2023-07-09T12:20:55;32.00;44.10
28763;DHT22;15918;51.270;6.522;2023-07-09T12:23:29;32.10;44.30
28763;DHT22;15918;51.270;6.522;2023-07-09T12:25:59;32.10;43.90
28763;DHT22;15918;51.270;6.522;2023-07-09T12:28:27;32.10;43.90
28763;DHT22;15918;51.270;6.522;2023-07-09T12:30:53;32.10;43.90
28763;DHT22;15918;51.270;6.522;2023-07-09T12:33:24;32.10;44.10
28763;DHT22;15918;51.270;6.522;2023-07-09T12:36:02;32.10;43.90
28763;DHT22;15918;51.270;6.522;2023-07-09T12:38:32;32.10;43.90
28763;DHT22;15918;51.270;6.522;2023-07-09T12:41:04;32.10;44.00
28763;DHT22;15918;51.270;6.522;2023-07-09T12:43:31;32.10;44.10
28763;DHT22;15918;51.270;6.522;2023-07-09T12:45:59;32.10;44.10
28763;DHT22;15918;51.270;6.522;2023-07-09T12:48:27;32.10;44.20
28763;DHT22;15918;51.270;6.522;2023-07-09T12:50:56;32.20;44.20
28763;DHT22;15918;51.270;6.522;2023-07-09T12:53:24;32.20;44.20
28763;DHT22;15918;51.270;6.522;2023-07-09T12:55:58;32.20;44.20
28763;DHT22;15918;51.270;6.522;2023-07-09T12:58:32;32.20;44.30
28763;DHT22;15918;51.270;6.522;2023-07-09T13:01:06;32.20;44.30
28763;DHT22;15918;51.270;6.522;2023-07-09T13:03:33;32.20;44.40
28763;DHT22;15918;51.270;6.522;2023-07-09T13:06:05;32.20;44.20
28763;DHT22;15918;51.270;6.522;2023-07-09T13:08:33;32.20;44.40
28763;DHT22;15918;51.270;6.522;2023-07-09T13:11:17;32.20;44.40
28763;DHT22;15918;51.270;6.522;2023-07-09T13:13:57;32.10;44.30
28763;DHT22;15918;51.270;6.522;2023-07-09T13:16:23;32.10;44.40
28763;DHT22;15918;51.270;6.522;2023-07-09T13:18:49;32.10;44.30
28763;DHT22;15918;51.270;6.522;2023-07-09T13:21:20;32.10;44.40
28763;DHT22;15918;51.270;6.522;2023-07-09T13:23:46;32.10;44.40
28763;DHT22;15918;51.270;6.522;2023-07-09T13:26:13;32.10;44.50
28763;DHT22;15918;51.270;6.522;2023-07-09T13:28:39;32.10;44.40
28763;DHT22;15918;51.270;6.522;2023-07-09T13:31:14;32.10;44.20
28763;DHT22;15918;51.270;6.522;2023-07-09T13:33:44;32.10;44.20
28763;DHT22;15918;51.270;6.522;2023-07-09T13:36:10;32.10;44.30
28763;DHT22;15918;51.270;6.522;2023-07-09T13:38:36;32.10;44.20
28763;DHT22;15918;51.270;6.522;2023-07-09T13:41:12;32.00;44.20
28763;DHT22;15918;51.270;6.522;2023-07-09T13:43:43;32.00;44.20
28763;DHT22;15918;51.270;6.522;2023-07-09T13:46:09;32.00;44.50
28763;DHT22;15918;51.270;6.522;2023-07-09T13:48:37;32.00;45.00
28763;DHT22;15918;51.270;6.522;2023-07-09T13:51:20;32.00;45.50
28763;DHT22;15918;51.270;6.522;2023-07-09T13:53:49;32.00;46.30
28763;DHT22;15918;51.270;6.522;2023-07-09T13:56:15;31.90;47.90
28763;DHT22;15918;51.270;6.522;2023-07-09T13:58:41;31.90;48.80
28763;DHT22;15918;51.270;6.522;2023-07-09T14:01:15;31.80;49.70
28763;DHT22;15918;51.270;6.522;2023-07-09T14:03:42;31.80;50.30
28763;DHT22;15918;51.270;6.522;2023-07-09T14:06:11;31.80;50.70
28763;DHT22;15918;51.270;6.522;2023-07-09T14:08:37;31.70;51.40
28763;DHT22;15918;51.270;6.522;2023-07-09T14:11:11;31.60;51.30
28763;DHT22;15918;51.270;6.522;2023-07-09T14:13:38;31.70;51.30
28763;DHT22;15918;51.270;6.522;2023-07-09T14:16:05;31.60;51.20
28763;DHT22;15918;51.270;6.522;2023-07-09T14:18:31;31.50;51.00
28763;DHT22;15918;51.270;6.522;2023-07-09T14:20:57;31.50;50.80
28763;DHT22;15918;51.270;6.522;2023-07-09T14:23:22;31.40;50.70
28763;DHT22;15918;51.270;6.522;2023-07-09T14:25:48;31.40;50.70
28763;DHT22;15918;51.270;6.522;2023-07-09T14:28:19;31.40;51.10
28763;DHT22;15918;51.270;6.522;2023-07-09T14:30:46;31.40;51.90
28763;DHT22;15918;51.270;6.522;2023-07-09T14:33:16;31.30;52.20
28763;DHT22;15918;51.270;6.522;2023-07-09T14:35:42;31.20;52.50
28763;DHT22;15918;51.270;6.522;2023-07-09T14:38:23;31.20;52.90
28763;DHT22;15918;51.270;6.522;2023-07-09T14:40:51;31.10;53.20
28763;DHT22;15918;51.270;6.522;2023-07-09T14:43:17;31.00;53.80
28763;DHT22;15918;51.270;6.522;2023-07-09T14:45:43;30.90;55.00
28763;DHT22;15918;51.270;6.522;2023-07-09T14:48:15;30.80;54.90
28763;DHT22;15918;51.270;6.522;2023-07-09T14:50:41;30.80;55.60
28763;DHT22;15918;51.270;6.522;2023-07-09T14:53:17;30.70;55.40
28763;DHT22;15918;51.270;6.522;2023-07-09T14:55:45;30.50;55.10
28763;DHT22;15918;51.270;6.522;2023-07-09T14:58:19;30.30;55.30
28763;DHT22;15918;51.270;6.522;2023-07-09T15:00:46;30.30;55.20
28763;DHT22;15918;51.270;6.522;2023-07-09T15:03:22;30.20;55.10
28763;DHT22;15918;51.270;6.522;2023-07-09T15:05:49;30.10;55.00
28763;DHT22;15918;51.270;6.522;2023-07-09T15:08:19;30.10;55.10
28763;DHT22;15918;51.270;6.522;2023-07-09T15:10:47;30.10;55.10
28763;DHT22;15918;51.270;6.522;2023-07-09T15:13:20;30.10;55.20
28763;DHT22;15918;51.270;6.522;2023-07-09T15:15:46;30.00;55.20
28763;DHT22;15918;51.270;6.522;2023-07-09T15:18:13;29.90;55.50
28763;DHT22;15918;51.270;6.522;2023-07-09T15:20:43;29.90;55.80
28763;DHT22;15918;51.270;6.522;2023-07-09T15:23:11;29.90;56.10
28763;DHT22;15918;51.270;6.522;2023-07-09T15:25:37;29.80;56.30
28763;DHT22;15918;51.270;6.522;2023-07-09T15:28:03;29.80;56.70
28763;DHT22;15918;51.270;6.522;2023-07-09T15:30:30;29.80;56.70
28763;DHT22;15918;51.270;6.522;2023-07-09T15:32:57;29.80;56.90
28763;DHT22;15918;51.270;6.522;2023-07-09T15:35:23;29.80;57.10
28763;DHT22;15918;51.270;6.522;2023-07-09T15:37:50;29.70;57.10
28763;DHT22;15918;51.270;6.522;2023-07-09T15:40:22;29.70;57.00
28763;DHT22;15918;51.270;6.522;2023-07-09T15:42:50;29.70;57.10
28763;DHT22;15918;51.270;6.522;2023-07-09T15:45:17;29.70;57.40
28763;DHT22;15918;51.270;6.522;2023-07-09T15:47:45;29.70;57.40
28763;DHT22;15918;51.270;6.522;2023-07-09T15:50:25;29.70;57.60
28763;DHT22;15918;51.270;6.522;2023-07-09T15:52:52;29.70;57.80
28763;DHT22;15918;51.270;6.522;2023-07-09T15:55:21;29.60;57.80
28763;DHT22;15918;51.270;6.522;2023-07-09T15:57:48;29.60;58.10
28763;DHT22;15918;51.270;6.522;2023-07-09T16:00:20;29.60;58.20
28763;DHT22;15918;51.270;6.522;2023-07-09T16:02:48;29.60;58.40
28763;DHT22;15918;51.270;6.522;2023-07-09T16:05:21;29.60;58.60
28763;DHT22;15918;51.270;6.522;2023-07-09T16:07:49;29.60;58.80
28763;DHT22;15918;51.270;6.522;2023-07-09T16:10:14;29.60;59.00
28763;DHT22;15918;51.270;6.522;2023-07-09T16:12:40;29.60;59.70
28763;DHT22;15918;51.270;6.522;2023-07-09T16:15:09;29.50;59.00
28763;DHT22;15918;51.270;6.522;2023-07-09T16:17:36;29.50;59.00
28763;DHT22;15918;51.270;6.522;2023-07-09T16:20:01;29.50;58.90
28763;DHT22;15918;51.270;6.522;2023-07-09T16:22:28;29.50;58.70
28763;DHT22;15918;51.270;6.522;2023-07-09T16:24:54;29.50;58.60